createdAt,value
2022-10-30T00:00:56.976Z,1012.62
2022-10-30T00:01:57.027Z,1012.58
2022-10-30T00:02:57.500Z,1012.60
2022-10-30T00:03:56.955Z,1012.58
2022-10-30T00:04:56.927Z,1012.55
2022-10-30T00:05:56.927Z,1012.61
2022-10-30T00:06:56.926Z,1012.65
2022-10-30T00:07:57.145Z,1012.61
2022-10-30T00:08:56.948Z,1012.62
2022-10-30T00:09:56.874Z,1012.69
2022-10-30T00:10:56.857Z,1012.65
2022-10-30T00:11:56.855Z,1012.61
2022-10-30T00:12:56.841Z,1012.61
2022-10-30T00:13:56.839Z,1012.60
2022-10-30T00:14:56.834Z,1012.59
2022-10-30T00:15:56.811Z,1012.58
2022-10-30T00:16:56.794Z,1012.57
2022-10-30T00:17:57.114Z,1012.52
2022-10-30T00:18:56.799Z,1012.54
2022-10-30T00:19:56.761Z,1012.51
2022-10-30T00:20:56.776Z,1012.48
2022-10-30T00:22:27.696Z,1012.48
2022-10-30T00:23:27.678Z,1012.50
2022-10-30T00:24:27.667Z,1012.46
2022-10-30T00:25:27.662Z,1012.43
2022-10-30T00:26:27.648Z,1012.42
2022-10-30T00:27:27.642Z,1012.41
2022-10-30T00:28:27.632Z,1012.39
2022-10-30T00:29:27.614Z,1012.38
2022-10-30T00:30:27.603Z,1012.40
2022-10-30T00:31:27.623Z,1012.42
2022-10-30T00:32:27.577Z,1012.41
2022-10-30T00:33:27.570Z,1012.42
2022-10-30T00:34:27.558Z,1012.46
2022-10-30T00:35:28.282Z,1012.38
2022-10-30T00:36:27.537Z,1012.39
2022-10-30T00:37:27.554Z,1012.42
2022-10-30T00:38:27.550Z,1012.50
2022-10-30T00:39:27.503Z,1012.44
2022-10-30T00:40:27.500Z,1012.49
2022-10-30T00:41:27.486Z,1012.50
2022-10-30T00:42:27.469Z,1012.47
2022-10-30T00:43:27.492Z,1012.48
2022-10-30T00:44:27.453Z,1012.43
2022-10-30T00:45:27.448Z,1012.49
2022-10-30T00:46:27.441Z,1012.48
2022-10-30T00:47:27.419Z,1012.44
2022-10-30T00:48:27.406Z,1012.40
2022-10-30T00:49:27.407Z,1012.40
2022-10-30T00:51:27.365Z,1012.38
2022-10-30T00:52:27.353Z,1012.36
2022-10-30T00:53:27.352Z,1012.37
2022-10-30T00:54:27.355Z,1012.38
2022-10-30T00:55:27.330Z,1012.41
2022-10-30T00:56:27.323Z,1012.40
2022-10-30T00:57:27.306Z,1012.37
2022-10-30T00:58:27.293Z,1012.35
2022-10-30T00:59:27.297Z,1012.31
2022-10-30T01:00:27.272Z,1012.25
2022-10-30T01:01:27.411Z,1012.23
2022-10-30T01:02:27.416Z,1012.26
2022-10-30T01:03:27.237Z,1012.22
2022-10-30T01:04:29.993Z,1012.21
2022-10-30T01:05:27.296Z,1012.18
2022-10-30T01:06:27.197Z,1012.21
2022-10-30T01:07:27.194Z,1012.19
2022-10-30T01:08:27.224Z,1012.19
2022-10-30T01:09:27.167Z,1012.19
2022-10-30T01:10:27.169Z,1012.14
2022-10-30T01:11:27.156Z,1012.17
2022-10-30T01:12:27.145Z,1012.14
2022-10-30T01:13:27.149Z,1012.13
2022-10-30T01:14:27.114Z,1012.09
2022-10-30T01:15:27.104Z,1012.07
2022-10-30T01:16:27.100Z,1012.09
2022-10-30T01:17:27.187Z,1012.05
2022-10-30T01:18:27.069Z,1012.06
2022-10-30T01:19:27.061Z,1012.06
2022-10-30T01:20:27.042Z,1012.12
2022-10-30T01:21:27.056Z,1012.06
2022-10-30T01:22:27.022Z,1012.12
2022-10-30T01:23:27.026Z,1012.11
2022-10-30T01:24:27.003Z,1012.10
2022-10-30T01:25:26.997Z,1012.07
2022-10-30T01:26:26.986Z,1012.06
2022-10-30T01:27:27.001Z,1012.01
2022-10-30T01:28:26.973Z,1012.05
2022-10-30T01:29:26.966Z,1012.05
2022-10-30T01:30:26.978Z,1012.05
2022-10-30T01:31:26.936Z,1012.09
2022-10-30T01:32:26.920Z,1012.10
2022-10-30T01:33:26.906Z,1012.12
2022-10-30T01:34:26.943Z,1012.12
2022-10-30T01:35:26.887Z,1012.15
2022-10-30T01:36:26.874Z,1012.19
2022-10-30T01:37:26.879Z,1012.12
2022-10-30T01:38:26.849Z,1012.17
2022-10-30T01:39:26.867Z,1012.11
2022-10-30T01:40:26.885Z,1012.17
2022-10-30T01:41:26.886Z,1012.13
2022-10-30T01:42:26.803Z,1012.09
2022-10-30T01:43:26.795Z,1012.08
2022-10-30T01:44:26.781Z,1012.06
2022-10-30T01:45:26.812Z,1012.08
2022-10-30T01:46:26.772Z,1012.10
2022-10-30T01:47:26.752Z,1012.08
2022-10-30T01:48:26.737Z,1012.02
2022-10-30T01:49:26.746Z,1012.00
2022-10-30T01:50:26.717Z,1011.99
2022-10-30T01:51:26.764Z,1011.97
2022-10-30T01:52:26.708Z,1011.91
2022-10-30T01:53:26.689Z,1011.89
2022-10-30T01:54:26.673Z,1011.90
2022-10-30T01:55:26.668Z,1011.86
2022-10-30T01:56:26.651Z,1011.83
2022-10-30T01:57:26.646Z,1011.82
2022-10-30T01:58:26.618Z,1011.78
2022-10-30T01:59:26.606Z,1011.77
2022-10-30T02:00:26.604Z,1011.74
2022-10-30T02:01:26.690Z,1011.73
2022-10-30T02:02:26.818Z,1011.73
2022-10-30T02:03:26.592Z,1011.73
2022-10-30T02:04:26.561Z,1011.75
2022-10-30T02:05:26.556Z,1011.72
2022-10-30T02:06:26.541Z,1011.74
2022-10-30T02:07:26.554Z,1011.79
2022-10-30T02:08:26.660Z,1011.77
2022-10-30T02:09:26.496Z,1011.81
2022-10-30T02:10:26.516Z,1011.79
2022-10-30T02:11:26.483Z,1011.77
2022-10-30T02:12:26.465Z,1011.78
2022-10-30T02:13:26.501Z,1011.81
2022-10-30T02:14:26.459Z,1011.77
2022-10-30T02:15:26.450Z,1011.82
2022-10-30T02:16:26.427Z,1011.81
2022-10-30T02:17:26.417Z,1011.82
2022-10-30T02:18:26.439Z,1011.86
2022-10-30T02:19:26.393Z,1011.85
2022-10-30T02:20:26.379Z,1011.80
2022-10-30T02:21:26.369Z,1011.80
2022-10-30T02:22:26.420Z,1011.78
2022-10-30T02:23:26.354Z,1011.80
2022-10-30T02:24:26.333Z,1011.79
2022-10-30T02:25:26.336Z,1011.79
2022-10-30T02:26:26.322Z,1011.75
2022-10-30T02:27:26.299Z,1011.76
2022-10-30T02:28:26.307Z,1011.77
2022-10-30T02:29:26.285Z,1011.75
2022-10-30T02:30:26.273Z,1011.72
2022-10-30T02:31:26.281Z,1011.71
2022-10-30T02:32:26.249Z,1011.69
2022-10-30T02:33:26.243Z,1011.68
2022-10-30T02:34:26.238Z,1011.69
2022-10-30T02:35:26.227Z,1011.66
2022-10-30T02:36:26.204Z,1011.66
2022-10-30T02:37:26.200Z,1011.69
2022-10-30T02:38:26.183Z,1011.67
2022-10-30T02:39:26.203Z,1011.67
2022-10-30T02:40:26.163Z,1011.64
2022-10-30T02:41:26.162Z,1011.65
2022-10-30T02:42:26.138Z,1011.61
2022-10-30T02:43:26.129Z,1011.66
2022-10-30T02:44:26.112Z,1011.64
2022-10-30T02:45:26.130Z,1011.58
2022-10-30T02:46:26.088Z,1011.56
2022-10-30T02:47:26.084Z,1011.60
2022-10-30T02:48:26.073Z,1011.60
2022-10-30T02:49:26.060Z,1011.60
2022-10-30T02:50:26.061Z,1011.62
2022-10-30T02:51:26.038Z,1011.63
2022-10-30T02:52:26.048Z,1011.61
2022-10-30T02:53:26.016Z,1011.59
2022-10-30T02:54:25.996Z,1011.59
2022-10-30T02:55:26.002Z,1011.60
2022-10-30T02:56:25.977Z,1011.55
2022-10-30T02:57:25.973Z,1011.56
2022-10-30T02:58:25.962Z,1011.59
2022-10-30T02:59:25.984Z,1011.57
2022-10-30T03:00:25.957Z,1011.55
2022-10-30T03:01:26.031Z,1011.54
2022-10-30T03:02:25.960Z,1011.54
2022-10-30T03:03:25.901Z,1011.56
2022-10-30T03:04:25.898Z,1011.56
2022-10-30T03:05:25.885Z,1011.56
2022-10-30T03:06:25.886Z,1011.58
2022-10-30T03:07:25.866Z,1011.58
2022-10-30T03:08:25.866Z,1011.60
2022-10-30T03:09:25.863Z,1011.60
2022-10-30T03:10:25.820Z,1011.65
2022-10-30T03:11:25.823Z,1011.65
2022-10-30T03:12:25.827Z,1011.66
2022-10-30T03:13:25.795Z,1011.70
2022-10-30T03:14:25.788Z,1011.68
2022-10-30T03:15:25.768Z,1011.73
2022-10-30T03:16:25.763Z,1011.74
2022-10-30T03:17:25.806Z,1011.78
2022-10-30T03:18:25.734Z,1011.76
2022-10-30T03:19:25.721Z,1011.79
2022-10-30T03:20:25.711Z,1011.84
2022-10-30T03:21:25.714Z,1011.80
2022-10-30T03:22:25.710Z,1011.78
2022-10-30T03:23:25.682Z,1011.77
2022-10-30T03:24:25.661Z,1011.77
2022-10-30T03:25:25.657Z,1011.72
2022-10-30T03:26:25.653Z,1011.79
2022-10-30T03:27:25.646Z,1011.74
2022-10-30T03:28:25.639Z,1011.72
2022-10-30T03:29:25.609Z,1011.70
2022-10-30T03:30:25.605Z,1011.71
2022-10-30T03:31:25.607Z,1011.68
2022-10-30T03:33:25.586Z,1011.67
2022-10-30T03:34:25.564Z,1011.64
2022-10-30T03:35:25.543Z,1011.64
2022-10-30T03:36:25.528Z,1011.64
2022-10-30T03:37:25.534Z,1011.60
2022-10-30T03:38:25.516Z,1011.61
2022-10-30T03:39:25.505Z,1011.56
2022-10-30T03:40:25.499Z,1011.51
2022-10-30T03:41:25.479Z,1011.48
2022-10-30T03:42:25.465Z,1011.45
2022-10-30T03:43:25.456Z,1011.39
2022-10-30T03:44:25.458Z,1011.36
2022-10-30T03:45:25.465Z,1011.35
2022-10-30T03:46:25.429Z,1011.35
2022-10-30T03:47:25.413Z,1011.37
2022-10-30T03:48:26.371Z,1011.34
2022-10-30T03:49:25.394Z,1011.33
2022-10-30T03:50:25.390Z,1011.30
2022-10-30T03:51:25.385Z,1011.24
2022-10-30T03:52:25.355Z,1011.23
2022-10-30T03:53:25.347Z,1011.16
2022-10-30T03:54:25.338Z,1011.14
2022-10-30T03:55:25.323Z,1011.18
2022-10-30T03:56:25.331Z,1011.20
2022-10-30T03:57:25.304Z,1011.23
2022-10-30T03:58:25.290Z,1011.29
2022-10-30T03:59:25.276Z,1011.24
2022-10-30T04:00:25.278Z,1011.20
2022-10-30T04:01:25.412Z,1011.17
2022-10-30T04:02:25.276Z,1011.19
2022-10-30T04:03:25.248Z,1011.21
2022-10-30T04:04:25.220Z,1011.23
2022-10-30T04:05:25.213Z,1011.20
2022-10-30T04:06:25.209Z,1011.21
2022-10-30T04:07:25.197Z,1011.16
2022-10-30T04:08:25.186Z,1011.17
2022-10-30T04:09:25.179Z,1011.22
2022-10-30T04:10:25.166Z,1011.27
2022-10-30T04:11:25.222Z,1011.30
2022-10-30T04:12:25.136Z,1011.39
2022-10-30T04:13:25.131Z,1011.43
2022-10-30T04:14:25.157Z,1011.46
2022-10-30T04:15:25.096Z,1011.46
2022-10-30T04:16:25.088Z,1011.42
2022-10-30T04:17:25.074Z,1011.41
2022-10-30T04:18:25.117Z,1011.44
2022-10-30T04:19:25.430Z,1011.39
2022-10-30T04:20:25.052Z,1011.42
2022-10-30T04:21:25.030Z,1011.42
2022-10-30T04:22:25.024Z,1011.37
2022-10-30T04:23:25.016Z,1011.39
2022-10-30T04:24:25.007Z,1011.40
2022-10-30T04:25:25.009Z,1011.41
2022-10-30T04:26:24.991Z,1011.40
2022-10-30T04:27:24.967Z,1011.37
2022-10-30T04:28:24.960Z,1011.33
2022-10-30T04:29:24.970Z,1011.33
2022-10-30T04:30:24.941Z,1011.35
2022-10-30T04:31:24.932Z,1011.35
2022-10-30T04:32:24.908Z,1011.35
2022-10-30T04:33:24.894Z,1011.34
2022-10-30T04:34:24.883Z,1011.40
2022-10-30T04:35:24.902Z,1011.51
2022-10-30T04:36:24.870Z,1011.59
2022-10-30T04:37:24.886Z,1011.60
2022-10-30T04:38:24.867Z,1011.69
2022-10-30T04:39:24.835Z,1011.60
2022-10-30T04:40:24.830Z,1011.62
2022-10-30T04:41:24.830Z,1011.64
2022-10-30T04:42:24.818Z,1011.60
2022-10-30T04:43:24.790Z,1011.59
2022-10-30T04:44:24.800Z,1011.57
2022-10-30T04:45:24.808Z,1011.64
2022-10-30T04:46:24.831Z,1011.73
2022-10-30T04:47:24.825Z,1011.84
2022-10-30T04:48:24.751Z,1011.83
2022-10-30T04:49:24.721Z,1011.80
2022-10-30T04:50:24.715Z,1011.77
2022-10-30T04:51:24.700Z,1011.66
2022-10-30T04:52:24.713Z,1011.68
2022-10-30T04:53:24.687Z,1011.65
2022-10-30T04:54:24.668Z,1011.66
2022-10-30T04:55:24.658Z,1011.66
2022-10-30T04:56:24.644Z,1011.63
2022-10-30T04:57:24.637Z,1011.63
2022-10-30T04:58:24.644Z,1011.58
2022-10-30T04:59:24.612Z,1011.55
2022-10-30T05:00:24.604Z,1011.57
2022-10-30T05:01:24.669Z,1011.51
2022-10-30T05:02:24.775Z,1011.46
2022-10-30T05:03:24.566Z,1011.46
2022-10-30T05:04:24.579Z,1011.45
2022-10-30T05:05:24.562Z,1011.47
2022-10-30T05:06:24.592Z,1011.45
2022-10-30T05:07:24.556Z,1011.43
2022-10-30T05:08:24.551Z,1011.44
2022-10-30T05:09:24.517Z,1011.46
2022-10-30T05:10:24.490Z,1011.53
2022-10-30T05:11:24.473Z,1011.53
2022-10-30T05:12:24.476Z,1011.57
2022-10-30T05:13:24.451Z,1011.60
2022-10-30T05:14:24.487Z,1011.61
2022-10-30T05:15:24.430Z,1011.67
2022-10-30T05:16:24.426Z,1011.62
2022-10-30T05:17:24.433Z,1011.58
2022-10-30T05:18:24.410Z,1011.52
2022-10-30T05:19:24.432Z,1011.63
2022-10-30T05:20:24.379Z,1011.61
2022-10-30T05:21:24.399Z,1011.49
2022-10-30T05:22:24.371Z,1011.56
2022-10-30T05:23:24.349Z,1011.53
2022-10-30T05:24:24.349Z,1011.48
2022-10-30T05:25:24.360Z,1011.38
2022-10-30T05:26:24.305Z,1011.38
2022-10-30T05:27:24.325Z,1011.36
2022-10-30T05:28:24.284Z,1011.21
2022-10-30T05:29:24.271Z,1011.27
2022-10-30T05:30:24.264Z,1011.30
2022-10-30T05:31:24.263Z,1011.30
2022-10-30T05:32:24.248Z,1011.19
2022-10-30T05:33:24.261Z,1011.10
2022-10-30T05:34:24.239Z,1011.08
2022-10-30T05:35:24.215Z,1011.02
2022-10-30T05:36:24.210Z,1011.08
2022-10-30T05:37:24.185Z,1011.09
2022-10-30T05:38:24.180Z,1011.15
2022-10-30T05:39:24.177Z,1011.09
2022-10-30T05:40:24.158Z,1011.09
2022-10-30T05:41:24.144Z,1011.06
2022-10-30T05:42:24.130Z,1011.05
2022-10-30T05:43:24.123Z,1011.01
2022-10-30T05:44:34.666Z,1011.02
2022-10-30T05:45:25.109Z,1011.11
2022-10-30T05:46:24.101Z,1011.32
2022-10-30T05:47:24.091Z,1011.56
2022-10-30T05:48:24.059Z,1011.65
2022-10-30T05:49:24.058Z,1011.62
2022-10-30T05:50:24.043Z,1011.60
2022-10-30T05:51:24.049Z,1011.59
2022-10-30T05:52:24.026Z,1011.52
2022-10-30T05:53:24.006Z,1011.33
2022-10-30T05:54:24.001Z,1011.09
2022-10-30T05:55:23.987Z,1010.88
2022-10-30T05:56:24.021Z,1010.69
2022-10-30T05:57:23.969Z,1010.60
2022-10-30T05:58:23.970Z,1010.72
2022-10-30T05:59:23.939Z,1010.99
2022-10-30T06:00:23.934Z,1011.28
2022-10-30T06:01:25.066Z,1011.44
2022-10-30T06:02:23.980Z,1011.51
2022-10-30T06:03:23.901Z,1011.39
2022-10-30T06:04:23.902Z,1011.25
2022-10-30T06:05:23.872Z,1011.08
2022-10-30T06:06:23.874Z,1010.90
2022-10-30T06:07:23.841Z,1010.86
2022-10-30T06:08:23.864Z,1010.88
2022-10-30T06:09:23.839Z,1010.94
2022-10-30T06:10:23.813Z,1011.01
2022-10-30T06:11:23.808Z,1011.05
2022-10-30T06:12:23.800Z,1011.09
2022-10-30T06:13:23.804Z,1011.13
2022-10-30T06:14:23.788Z,1011.12
2022-10-30T06:15:23.772Z,1011.18
2022-10-30T06:16:23.821Z,1011.17
2022-10-30T06:17:23.740Z,1011.21
2022-10-30T06:18:23.815Z,1011.23
2022-10-30T06:19:23.719Z,1011.18
2022-10-30T06:20:23.703Z,1011.16
2022-10-30T06:21:23.694Z,1011.12
2022-10-30T06:22:23.685Z,1011.07
2022-10-30T06:23:23.668Z,1011.10
2022-10-30T06:24:23.678Z,1011.03
2022-10-30T06:25:23.651Z,1011.00
2022-10-30T06:26:23.638Z,1011.00
2022-10-30T06:27:23.631Z,1010.96
2022-10-30T06:28:23.688Z,1011.03
2022-10-30T06:29:23.605Z,1011.01
2022-10-30T06:30:23.627Z,1010.98
2022-10-30T06:31:23.655Z,1010.93
2022-10-30T06:32:23.571Z,1010.98
2022-10-30T06:33:23.561Z,1010.95
2022-10-30T06:34:23.559Z,1010.92
2022-10-30T06:35:23.545Z,1010.89
2022-10-30T06:36:23.532Z,1010.87
2022-10-30T06:37:23.577Z,1010.92
2022-10-30T06:38:23.518Z,1010.89
2022-10-30T06:39:23.496Z,1010.90
2022-10-30T06:40:23.504Z,1010.88
2022-10-30T06:41:26.097Z,1010.94
2022-10-30T06:42:24.465Z,1010.99
2022-10-30T06:43:23.452Z,1010.92
2022-10-30T06:44:23.542Z,1010.95
2022-10-30T06:45:23.448Z,1010.94
2022-10-30T06:46:27.020Z,1010.97
2022-10-30T06:47:24.431Z,1010.94
2022-10-30T06:48:23.408Z,1010.91
2022-10-30T06:49:23.401Z,1010.92
2022-10-30T06:50:23.408Z,1010.90
2022-10-30T06:51:23.371Z,1010.96
2022-10-30T06:52:23.345Z,1010.96
2022-10-30T06:53:23.386Z,1010.97
2022-10-30T06:54:23.348Z,1011.00
2022-10-30T06:55:23.318Z,1011.03
2022-10-30T06:56:23.368Z,1011.05
2022-10-30T06:57:23.287Z,1011.11
2022-10-30T06:58:23.309Z,1011.13
2022-10-30T06:59:23.270Z,1011.18
2022-10-30T07:00:23.264Z,1011.18
2022-10-30T07:01:23.336Z,1011.13
2022-10-30T07:02:23.334Z,1011.15
2022-10-30T07:03:23.229Z,1011.10
2022-10-30T07:04:23.219Z,1011.12
2022-10-30T07:05:23.211Z,1011.18
2022-10-30T07:06:23.199Z,1011.17
2022-10-30T07:07:23.193Z,1011.24
2022-10-30T07:08:23.202Z,1011.27
2022-10-30T07:09:23.160Z,1011.25
2022-10-30T07:10:23.148Z,1011.22
2022-10-30T07:11:23.944Z,1011.24
2022-10-30T07:12:23.138Z,1011.25
2022-10-30T07:13:23.109Z,1011.26
2022-10-30T07:14:23.135Z,1011.31
2022-10-30T07:15:23.088Z,1011.30
2022-10-30T07:16:23.088Z,1011.34
2022-10-30T07:17:23.068Z,1011.35
2022-10-30T07:18:23.066Z,1011.36
2022-10-30T07:19:23.093Z,1011.42
2022-10-30T07:20:23.039Z,1011.41
2022-10-30T07:21:23.037Z,1011.41
2022-10-30T07:22:23.021Z,1011.41
2022-10-30T07:23:23.017Z,1011.43
2022-10-30T07:24:23.006Z,1011.46
2022-10-30T07:25:22.980Z,1011.46
2022-10-30T07:26:23.008Z,1011.46
2022-10-30T07:27:22.968Z,1011.45
2022-10-30T07:28:22.952Z,1011.49
2022-10-30T07:29:22.935Z,1011.48
2022-10-30T07:30:23.008Z,1011.57
2022-10-30T07:31:34.962Z,1011.53
2022-10-30T07:32:23.911Z,1011.52
2022-10-30T07:33:22.902Z,1011.61
2022-10-30T07:34:22.883Z,1011.50
2022-10-30T07:35:22.873Z,1011.51
2022-10-30T07:36:22.881Z,1011.53
2022-10-30T07:37:22.845Z,1011.53
2022-10-30T07:38:22.868Z,1011.54
2022-10-30T07:39:22.845Z,1011.56
2022-10-30T07:40:22.835Z,1011.55
2022-10-30T07:41:22.806Z,1011.56
2022-10-30T07:42:22.811Z,1011.54
2022-10-30T07:43:22.817Z,1011.52
2022-10-30T07:44:22.772Z,1011.56
2022-10-30T07:45:22.763Z,1011.53
2022-10-30T07:46:22.746Z,1011.48
2022-10-30T07:47:22.745Z,1011.52
2022-10-30T07:48:22.724Z,1011.51
2022-10-30T07:49:22.724Z,1011.56
2022-10-30T07:50:22.703Z,1011.62
2022-10-30T07:51:22.735Z,1011.60
2022-10-30T07:52:22.706Z,1011.60
2022-10-30T07:53:22.688Z,1011.60
2022-10-30T07:54:22.657Z,1011.49
2022-10-30T07:55:22.656Z,1011.57
2022-10-30T07:56:22.636Z,1011.61
2022-10-30T07:57:22.644Z,1011.55
2022-10-30T07:58:22.620Z,1011.48
2022-10-30T07:59:22.606Z,1011.44
2022-10-30T08:00:22.585Z,1011.49
2022-10-30T08:01:22.829Z,1011.51
2022-10-30T08:02:22.705Z,1011.49
2022-10-30T08:03:22.558Z,1011.50
2022-10-30T08:04:22.560Z,1011.54
2022-10-30T08:05:27.101Z,1011.56
2022-10-30T08:06:26.378Z,1011.59
2022-10-30T08:07:22.505Z,1011.58
2022-10-30T08:08:22.516Z,1011.59
2022-10-30T08:09:22.487Z,1011.59
2022-10-30T08:10:22.487Z,1011.53
2022-10-30T08:11:22.512Z,1011.56
2022-10-30T08:12:22.459Z,1011.58
2022-10-30T08:13:22.449Z,1011.62
2022-10-30T08:14:22.471Z,1011.68
2022-10-30T08:15:22.424Z,1011.67
2022-10-30T08:16:22.428Z,1011.71
2022-10-30T08:17:22.406Z,1011.66
2022-10-30T08:18:22.397Z,1011.57
2022-10-30T08:19:22.387Z,1011.53
2022-10-30T08:20:22.382Z,1011.67
2022-10-30T08:21:22.359Z,1011.79
2022-10-30T08:22:22.501Z,1011.89
2022-10-30T08:23:22.331Z,1011.69
2022-10-30T08:24:22.352Z,1011.68
2022-10-30T08:25:22.307Z,1011.68
2022-10-30T08:26:22.305Z,1011.59
2022-10-30T08:27:22.312Z,1011.56
2022-10-30T08:28:22.285Z,1011.55
2022-10-30T08:29:22.269Z,1011.63
2022-10-30T08:30:22.320Z,1011.65
2022-10-30T08:31:22.245Z,1011.71
2022-10-30T08:32:22.229Z,1011.74
2022-10-30T08:33:22.972Z,1011.74
2022-10-30T08:34:22.214Z,1011.58
2022-10-30T08:35:22.231Z,1011.67
2022-10-30T08:36:22.188Z,1011.76
2022-10-30T08:37:22.184Z,1011.68
2022-10-30T08:38:22.188Z,1011.63
2022-10-30T08:39:22.164Z,1011.62
2022-10-30T08:40:22.148Z,1011.66
2022-10-30T08:41:22.139Z,1011.67
2022-10-30T08:42:22.142Z,1011.68
2022-10-30T08:43:22.135Z,1011.71
2022-10-30T08:44:22.112Z,1011.67
2022-10-30T08:45:26.539Z,1011.66
2022-10-30T08:46:23.075Z,1011.69
2022-10-30T08:47:22.069Z,1011.72
2022-10-30T08:48:22.060Z,1011.70
2022-10-30T08:49:22.057Z,1011.70
2022-10-30T08:51:22.020Z,1011.69
2022-10-30T08:52:22.918Z,1011.61
2022-10-30T08:53:22.003Z,1011.65
2022-10-30T08:54:22.017Z,1011.66
2022-10-30T08:55:21.993Z,1011.70
2022-10-30T08:56:21.976Z,1011.71
2022-10-30T08:57:21.961Z,1011.72
2022-10-30T08:58:21.946Z,1011.64
2022-10-30T08:59:21.951Z,1011.67
2022-10-30T09:00:21.922Z,1011.68
2022-10-30T09:01:22.044Z,1011.75
2022-10-30T09:02:22.016Z,1011.68
2022-10-30T09:03:21.914Z,1011.69
2022-10-30T09:04:21.880Z,1011.70
2022-10-30T09:05:21.896Z,1011.73
2022-10-30T09:06:21.865Z,1011.74
2022-10-30T09:07:21.857Z,1011.68
2022-10-30T09:08:21.842Z,1011.71
2022-10-30T09:09:21.827Z,1011.69
2022-10-30T09:10:21.828Z,1011.69
2022-10-30T09:11:21.814Z,1011.72
2022-10-30T09:12:21.791Z,1011.65
2022-10-30T09:13:21.783Z,1011.69
2022-10-30T09:14:21.771Z,1011.74
2022-10-30T09:15:21.762Z,1011.69
2022-10-30T09:16:21.755Z,1011.74
2022-10-30T09:17:22.483Z,1011.73
2022-10-30T09:18:21.731Z,1011.72
2022-10-30T09:19:21.720Z,1011.69
2022-10-30T09:20:21.712Z,1011.65
2022-10-30T09:21:21.739Z,1011.70
2022-10-30T09:22:21.721Z,1011.72
2022-10-30T09:23:21.670Z,1011.65
2022-10-30T09:24:21.674Z,1011.66
2022-10-30T09:25:21.687Z,1011.70
2022-10-30T09:26:21.648Z,1011.66
2022-10-30T09:27:21.651Z,1011.58
2022-10-30T09:28:21.619Z,1011.61
2022-10-30T09:29:21.605Z,1011.60
2022-10-30T09:30:21.590Z,1011.60
2022-10-30T09:31:21.582Z,1011.56
2022-10-30T09:32:21.590Z,1011.61
2022-10-30T09:33:21.582Z,1011.57
2022-10-30T09:34:21.639Z,1011.48
2022-10-30T09:35:21.540Z,1011.51
2022-10-30T09:36:22.382Z,1011.51
2022-10-30T09:37:21.561Z,1011.45
2022-10-30T09:38:21.520Z,1011.44
2022-10-30T09:39:21.511Z,1011.49
2022-10-30T09:40:21.511Z,1011.45
2022-10-30T09:41:21.476Z,1011.42
2022-10-30T09:42:21.476Z,1011.46
2022-10-30T09:43:21.463Z,1011.45
2022-10-30T09:44:21.441Z,1011.50
2022-10-30T09:45:29.172Z,1011.42
2022-10-30T09:46:22.424Z,1011.41
2022-10-30T09:47:23.552Z,1011.43
2022-10-30T09:48:21.406Z,1011.41
2022-10-30T09:49:21.399Z,1011.37
2022-10-30T09:50:21.381Z,1011.38
2022-10-30T09:51:21.386Z,1011.35
2022-10-30T09:52:21.357Z,1011.37
2022-10-30T09:53:21.354Z,1011.36
2022-10-30T09:54:21.357Z,1011.37
2022-10-30T09:55:21.331Z,1011.37
2022-10-30T09:56:21.309Z,1011.39
2022-10-30T09:57:21.308Z,1011.45
2022-10-30T09:58:21.289Z,1011.51
2022-10-30T09:59:21.288Z,1011.44
2022-10-30T10:00:21.274Z,1011.50
2022-10-30T10:01:21.376Z,1011.47
2022-10-30T10:02:21.448Z,1011.53
2022-10-30T10:03:21.245Z,1011.60
2022-10-30T10:04:23.945Z,1011.58
2022-10-30T10:05:22.246Z,1011.65
2022-10-30T10:06:21.204Z,1011.61
2022-10-30T10:07:21.196Z,1011.62
2022-10-30T10:08:21.177Z,1011.66
2022-10-30T10:09:21.166Z,1011.69
2022-10-30T10:10:21.230Z,1011.69
2022-10-30T10:11:21.147Z,1011.67
2022-10-30T10:12:21.128Z,1011.61
2022-10-30T10:13:21.138Z,1011.62
2022-10-30T10:14:21.115Z,1011.58
2022-10-30T10:15:21.118Z,1011.61
2022-10-30T10:16:21.113Z,1011.60
2022-10-30T10:17:21.086Z,1011.58
2022-10-30T10:18:21.142Z,1011.57
2022-10-30T10:19:21.071Z,1011.55
2022-10-30T10:20:21.103Z,1011.54
2022-10-30T10:21:21.042Z,1011.52
2022-10-30T10:22:21.035Z,1011.60
2022-10-30T10:23:21.025Z,1011.60
2022-10-30T10:24:21.002Z,1011.60
2022-10-30T10:25:21.006Z,1011.59
2022-10-30T10:26:20.986Z,1011.61
2022-10-30T10:27:20.985Z,1011.64
2022-10-30T10:28:21.612Z,1011.63
2022-10-30T10:29:20.965Z,1011.65
2022-10-30T10:30:21.066Z,1011.64
2022-10-30T10:31:20.932Z,1011.64
2022-10-30T10:32:20.916Z,1011.65
2022-10-30T10:34:20.884Z,1011.71
2022-10-30T10:35:20.873Z,1011.68
2022-10-30T10:36:20.870Z,1011.72
2022-10-30T10:37:20.873Z,1011.65
2022-10-30T10:38:20.842Z,1011.63
2022-10-30T10:39:20.838Z,1011.66
2022-10-30T10:40:20.863Z,1011.63
2022-10-30T10:41:20.819Z,1011.64
2022-10-30T10:42:20.813Z,1011.73
2022-10-30T10:43:20.802Z,1011.64
2022-10-30T10:44:20.798Z,1011.68
2022-10-30T10:45:20.767Z,1011.61
2022-10-30T10:46:20.755Z,1011.61
2022-10-30T10:47:20.741Z,1011.59
2022-10-30T10:48:20.741Z,1011.55
2022-10-30T10:49:20.744Z,1011.51
2022-10-30T10:50:20.783Z,1011.49
2022-10-30T10:51:20.707Z,1011.53
2022-10-30T10:52:20.708Z,1011.48
2022-10-30T10:53:20.682Z,1011.44
2022-10-30T10:54:20.679Z,1011.44
2022-10-30T10:55:20.687Z,1011.41
2022-10-30T10:56:20.653Z,1011.40
2022-10-30T10:57:20.651Z,1011.39
2022-10-30T10:58:20.631Z,1011.36
2022-10-30T10:59:20.629Z,1011.37
2022-10-30T11:00:20.727Z,1011.33
2022-10-30T11:01:20.714Z,1011.30
2022-10-30T11:02:20.810Z,1011.31
2022-10-30T11:03:20.576Z,1011.30
2022-10-30T11:04:20.569Z,1011.30
2022-10-30T11:05:21.055Z,1011.27
2022-10-30T11:06:20.550Z,1011.33
2022-10-30T11:07:20.531Z,1011.30
2022-10-30T11:08:20.523Z,1011.28
2022-10-30T11:09:20.514Z,1011.23
2022-10-30T11:10:20.631Z,1011.31
2022-10-30T11:11:20.512Z,1011.26
2022-10-30T11:12:20.470Z,1011.30
2022-10-30T11:13:20.466Z,1011.23
2022-10-30T11:14:20.456Z,1011.26
2022-10-30T11:15:20.458Z,1011.20
2022-10-30T11:16:20.437Z,1011.20
2022-10-30T11:17:20.424Z,1011.18
2022-10-30T11:18:20.437Z,1011.21
2022-10-30T11:19:20.417Z,1011.21
2022-10-30T11:20:20.462Z,1011.17
2022-10-30T11:21:20.382Z,1011.20
2022-10-30T11:22:20.364Z,1011.21
2022-10-30T11:23:20.374Z,1011.22
2022-10-30T11:24:20.357Z,1011.25
2022-10-30T11:25:20.341Z,1011.26
2022-10-30T11:26:20.353Z,1011.26
2022-10-30T11:27:20.332Z,1011.25
2022-10-30T11:28:20.311Z,1011.24
2022-10-30T11:29:20.295Z,1011.24
2022-10-30T11:30:20.483Z,1011.25
2022-10-30T11:31:20.270Z,1011.24
2022-10-30T11:32:20.279Z,1011.27
2022-10-30T11:33:20.247Z,1011.26
2022-10-30T11:34:20.240Z,1011.28
2022-10-30T11:35:20.234Z,1011.27
2022-10-30T11:36:20.215Z,1011.29
2022-10-30T11:37:20.220Z,1011.36
2022-10-30T11:38:20.208Z,1011.36
2022-10-30T11:39:20.189Z,1011.39
2022-10-30T11:40:20.258Z,1011.37
2022-10-30T11:41:20.171Z,1011.36
2022-10-30T11:42:20.169Z,1011.34
2022-10-30T11:43:20.142Z,1011.29
2022-10-30T11:44:20.135Z,1011.38
2022-10-30T11:45:20.127Z,1011.34
2022-10-30T11:46:20.112Z,1011.33
2022-10-30T11:47:20.116Z,1011.33
2022-10-30T11:48:20.585Z,1011.30
2022-10-30T11:49:20.076Z,1011.37
2022-10-30T11:50:20.066Z,1011.37
2022-10-30T11:51:20.137Z,1011.35
2022-10-30T11:52:20.042Z,1011.34
2022-10-30T11:53:20.050Z,1011.35
2022-10-30T11:54:20.024Z,1011.30
2022-10-30T11:55:20.013Z,1011.28
2022-10-30T11:56:19.995Z,1011.29
2022-10-30T11:57:20.007Z,1011.26
2022-10-30T11:58:20.002Z,1011.27
2022-10-30T11:59:19.967Z,1011.24
2022-10-30T12:00:19.949Z,1011.29
2022-10-30T12:01:19.971Z,1011.28
2022-10-30T12:02:20.099Z,1011.30
2022-10-30T12:03:19.924Z,1011.27
2022-10-30T12:04:19.920Z,1011.27
2022-10-30T12:05:19.919Z,1011.20
2022-10-30T12:06:20.509Z,1011.29
2022-10-30T12:07:19.884Z,1011.27
2022-10-30T12:08:19.863Z,1011.22
2022-10-30T12:09:19.866Z,1011.25
2022-10-30T12:10:19.844Z,1011.24